createdAt,value
2022-10-09T00:02:25.774Z,22.42
2022-10-09T00:05:28.040Z,21.27
2022-10-09T00:08:44.753Z,22.90
2022-10-09T00:11:46.444Z,24.63
2022-10-09T00:15:00.765Z,18.20
2022-10-09T00:18:02.594Z,21.75
2022-10-09T00:21:29.796Z,18.67
2022-10-09T00:24:37.776Z,21.07
2022-10-09T00:27:52.793Z,20.58
2022-10-09T00:30:55.156Z,18.05
2022-10-09T00:34:09.768Z,20.20
2022-10-09T00:37:17.795Z,19.67
2022-10-09T00:40:26.339Z,20.93
2022-10-09T00:43:46.814Z,19.92
2022-10-09T00:46:55.434Z,19.25
2022-10-09T00:50:09.820Z,18.37
2022-10-09T00:53:27.814Z,19.45
2022-10-09T00:56:29.620Z,21.40
2022-10-09T00:59:46.769Z,22.23
2022-10-09T01:03:01.808Z,19.00
2022-10-09T01:06:31.805Z,18.45
2022-10-09T01:09:53.800Z,18.05
2022-10-09T01:13:22.358Z,20.10
2022-10-09T01:16:35.806Z,21.02
2022-10-09T01:20:09.806Z,16.85
2022-10-09T01:23:43.444Z,17.67
2022-10-09T01:27:00.791Z,16.92
2022-10-09T01:30:18.861Z,21.77
2022-10-09T01:33:20.642Z,18.42
2022-10-09T01:36:36.845Z,21.50
2022-10-09T01:39:53.813Z,20.25
2022-10-09T01:43:02.699Z,18.80
2022-10-09T01:46:36.006Z,19.93
2022-10-09T01:49:56.819Z,19.60
2022-10-09T01:53:09.555Z,21.40
2022-10-09T01:56:23.854Z,21.30
2022-10-09T01:59:39.471Z,22.92
2022-10-09T02:02:49.111Z,18.83
2022-10-09T02:05:58.208Z,20.88
2022-10-09T02:09:07.827Z,24.35
2022-10-09T02:12:18.798Z,19.92
2022-10-09T02:15:28.885Z,22.77
2022-10-09T02:18:49.846Z,21.17
2022-10-09T02:22:13.867Z,20.73
2022-10-09T02:25:28.885Z,22.92
2022-10-09T02:28:39.076Z,19.85
2022-10-09T02:31:48.430Z,20.52
2022-10-09T02:34:57.863Z,23.77
2022-10-09T02:38:12.815Z,24.55
2022-10-09T02:41:28.841Z,21.15
2022-10-09T02:44:30.582Z,20.73
2022-10-09T02:47:44.870Z,22.70
2022-10-09T02:50:46.600Z,23.80
2022-10-09T02:54:01.866Z,21.23
2022-10-09T02:57:10.405Z,21.37
2022-10-09T03:00:18.857Z,23.48
2022-10-09T03:03:27.360Z,26.58
2022-10-09T03:06:40.055Z,18.87
2022-10-09T03:09:54.841Z,21.30
2022-10-09T03:12:56.656Z,24.02
2022-10-09T03:16:12.996Z,20.58
2022-10-09T03:19:21.843Z,21.25
2022-10-09T03:22:37.110Z,25.33
2022-10-09T03:25:45.839Z,22.92
2022-10-09T03:28:55.826Z,22.65
2022-10-09T03:32:10.988Z,22.70
2022-10-09T03:35:19.502Z,23.65
2022-10-09T03:38:33.920Z,24.70
2022-10-09T03:41:41.924Z,24.27
2022-10-09T03:44:50.396Z,22.67
2022-10-09T03:47:58.863Z,24.12
2022-10-09T03:51:07.388Z,24.55
2022-10-09T03:54:21.868Z,25.60
2022-10-09T03:57:30.606Z,21.17
2022-10-09T04:00:45.951Z,25.92
2022-10-09T04:03:53.884Z,25.15
2022-10-09T04:07:08.894Z,25.12
2022-10-09T04:10:11.080Z,27.37
2022-10-09T04:13:25.912Z,25.12
2022-10-09T04:16:33.939Z,26.55
2022-10-09T04:19:42.445Z,26.40
2022-10-09T04:23:03.883Z,25.12
2022-10-09T04:26:12.904Z,28.30
2022-10-09T04:29:27.879Z,28.70
2022-10-09T04:32:36.552Z,23.77
2022-10-09T04:35:48.917Z,31.52
2022-10-09T04:39:03.893Z,29.10
2022-10-09T04:42:12.554Z,25.93
2022-10-09T04:45:20.934Z,29.65
2022-10-09T04:48:35.911Z,26.00
2022-10-09T04:51:43.899Z,29.55
2022-10-09T04:54:52.508Z,33.75
2022-10-09T04:58:00.998Z,27.07
2022-10-09T05:01:20.030Z,24.90
2022-10-09T05:04:21.893Z,29.55
2022-10-09T05:07:36.927Z,28.27
2022-10-09T05:10:51.915Z,27.92
2022-10-09T05:13:55.640Z,26.37
2022-10-09T05:17:14.165Z,28.58
2022-10-09T05:20:29.190Z,31.70
2022-10-09T05:23:43.921Z,27.00
2022-10-09T05:26:45.643Z,28.45
2022-10-09T05:29:59.927Z,33.40
2022-10-09T05:33:08.687Z,27.02
2022-10-09T05:36:16.989Z,30.05
2022-10-09T05:39:25.620Z,32.47
2022-10-09T05:42:39.931Z,30.00
2022-10-09T05:45:47.945Z,28.77
2022-10-09T05:48:58.911Z,26.77
2022-10-09T05:52:13.973Z,27.13
2022-10-09T05:55:22.509Z,27.20
2022-10-09T05:58:36.951Z,27.17
2022-10-09T06:01:55.116Z,26.93
2022-10-09T06:04:56.907Z,29.20
2022-10-09T06:08:11.983Z,25.88
2022-10-09T06:11:17.224Z,27.75
2022-10-09T06:14:31.926Z,34.45
2022-10-09T06:17:33.939Z,35.87
2022-10-09T06:21:02.950Z,28.08
2022-10-09T06:24:22.261Z,27.98
2022-10-09T06:27:39.927Z,28.42
2022-10-09T06:30:41.726Z,25.55
2022-10-09T06:33:56.983Z,26.73
2022-10-09T06:36:58.727Z,28.38
2022-10-09T06:40:13.959Z,27.58
2022-10-09T06:43:28.978Z,26.35
2022-10-09T06:46:40.805Z,29.98
2022-10-09T06:49:56.003Z,22.23
2022-10-09T06:53:03.978Z,26.37
2022-10-09T06:56:13.083Z,23.60
2022-10-09T06:59:27.974Z,24.83
2022-10-09T07:02:40.459Z,25.90
2022-10-09T07:05:50.963Z,26.00
2022-10-09T07:09:02.436Z,26.87
2022-10-09T07:12:11.032Z,21.27
2022-10-09T07:15:19.534Z,22.58
2022-10-09T07:18:34.015Z,22.73
2022-10-09T07:21:46.226Z,22.17
2022-10-09T07:25:01.179Z,24.02
2022-10-09T07:28:03.061Z,20.83
2022-10-09T07:31:19.038Z,23.80
2022-10-09T07:34:27.026Z,21.62
2022-10-09T07:37:35.583Z,18.47
2022-10-09T07:40:50.001Z,18.15
2022-10-09T07:43:59.051Z,17.12
2022-10-09T07:47:14.108Z,19.10
2022-10-09T07:50:23.062Z,15.05
2022-10-09T07:53:38.059Z,14.27
2022-10-09T07:56:53.027Z,16.83
2022-10-09T07:59:54.724Z,18.02
2022-10-09T08:03:09.083Z,15.68
2022-10-09T08:06:10.898Z,16.70
2022-10-09T08:09:26.015Z,17.67
2022-10-09T08:12:34.039Z,20.08
2022-10-09T08:15:43.850Z,16.67
2022-10-09T08:18:51.991Z,17.50
2022-10-09T08:22:07.316Z,18.50
2022-10-09T08:25:16.078Z,14.60
2022-10-09T08:28:25.071Z,13.95
2022-10-09T08:31:35.071Z,18.48
2022-10-09T08:34:43.554Z,15.70
2022-10-09T08:37:52.007Z,16.33
2022-10-09T08:41:15.029Z,14.03
2022-10-09T08:44:29.256Z,17.08
2022-10-09T08:47:54.119Z,13.93
2022-10-09T08:50:58.770Z,17.45
2022-10-09T08:54:31.067Z,15.20
2022-10-09T08:57:39.889Z,13.60
2022-10-09T09:01:09.086Z,15.02
2022-10-09T09:04:36.004Z,14.13
2022-10-09T09:08:07.054Z,12.40
2022-10-09T09:11:28.752Z,14.43
2022-10-09T09:15:05.048Z,15.13
2022-10-09T09:18:32.306Z,10.95
2022-10-09T09:21:55.043Z,16.23
2022-10-09T09:24:58.620Z,14.50
2022-10-09T09:28:27.110Z,10.73
2022-10-09T09:31:34.749Z,12.07
2022-10-09T09:34:49.095Z,11.25
2022-10-09T09:37:50.990Z,10.95
2022-10-09T09:41:06.082Z,12.40
2022-10-09T09:44:17.139Z,13.60
2022-10-09T09:47:34.527Z,13.63
2022-10-09T09:50:52.932Z,15.27
2022-10-09T09:54:24.079Z,13.52
2022-10-09T09:57:41.124Z,10.73
2022-10-09T10:01:00.281Z,12.77
2022-10-09T10:04:10.096Z,12.37
2022-10-09T10:07:29.932Z,9.82
2022-10-09T10:10:39.089Z,15.88
2022-10-09T10:13:49.112Z,10.38
2022-10-09T10:17:00.090Z,12.98
2022-10-09T10:20:15.115Z,11.03
2022-10-09T10:23:36.379Z,14.15
2022-10-09T10:26:50.087Z,11.77
2022-10-09T10:30:09.112Z,11.18
2022-10-09T10:33:21.108Z,13.52
2022-10-09T10:36:36.156Z,12.27
2022-10-09T10:39:45.863Z,13.02
2022-10-09T10:43:21.100Z,11.18
2022-10-09T10:46:44.121Z,10.95
2022-10-09T10:49:53.232Z,10.57
2022-10-09T10:53:23.159Z,12.53
2022-10-09T10:56:40.197Z,13.75
2022-10-09T11:00:10.110Z,12.45
2022-10-09T11:03:41.807Z,13.10
2022-10-09T11:07:09.125Z,11.15
2022-10-09T11:10:38.139Z,9.40
2022-10-09T11:14:01.910Z,13.35
2022-10-09T11:17:37.140Z,14.07
2022-10-09T11:21:10.113Z,11.90
2022-10-09T11:25:05.146Z,12.68
2022-10-09T11:28:19.386Z,12.83
2022-10-09T11:31:42.198Z,11.80
2022-10-09T11:35:14.129Z,15.38
2022-10-09T11:38:27.115Z,12.57
2022-10-09T11:41:43.160Z,12.75
2022-10-09T11:45:12.125Z,15.63
2022-10-09T11:48:48.023Z,10.65
2022-10-09T11:52:09.188Z,15.07
2022-10-09T11:55:23.690Z,11.07
2022-10-09T11:58:32.136Z,11.70
2022-10-09T12:01:42.165Z,9.87
2022-10-09T12:04:54.847Z,11.12
2022-10-09T12:08:26.262Z,13.27
2022-10-09T12:11:36.156Z,11.77
2022-10-09T12:14:47.999Z,12.20
2022-10-09T12:18:03.188Z,13.43
2022-10-09T12:21:24.664Z,11.95
2022-10-09T12:24:51.225Z,10.27
2022-10-09T12:28:07.457Z,10.00
2022-10-09T12:31:26.213Z,10.73
2022-10-09T12:34:48.211Z,14.93
2022-10-09T12:38:03.202Z,16.90
2022-10-09T12:41:20.277Z,11.12
2022-10-09T12:44:35.969Z,14.20
2022-10-09T12:47:50.199Z,14.68
2022-10-09T12:50:53.188Z,11.40
2022-10-09T12:54:15.220Z,10.20
2022-10-09T12:57:31.175Z,9.60
2022-10-09T13:00:40.422Z,12.63
2022-10-09T13:03:58.541Z,11.48
2022-10-09T13:07:18.605Z,18.37
2022-10-09T13:10:36.189Z,14.98
2022-10-09T13:13:45.332Z,14.40
2022-10-09T13:17:00.319Z,12.82
2022-10-09T13:20:25.371Z,15.43
2022-10-09T13:23:48.024Z,12.43
2022-10-09T13:26:49.760Z,13.95
2022-10-09T13:30:04.279Z,17.25
2022-10-09T13:33:20.236Z,14.43
2022-10-09T13:36:35.244Z,12.55
2022-10-09T13:39:43.832Z,22.00
2022-10-09T13:43:02.251Z,12.85
2022-10-09T13:46:10.824Z,10.77
2022-10-09T13:49:19.220Z,15.18
2022-10-09T13:52:34.266Z,20.25
2022-10-09T13:55:49.220Z,14.17
2022-10-09T13:58:58.331Z,15.18
2022-10-09T14:02:07.564Z,17.98
2022-10-09T14:05:15.826Z,15.10
2022-10-09T14:08:32.504Z,11.82
2022-10-09T14:11:34.796Z,13.83
2022-10-09T14:14:49.254Z,13.93
2022-10-09T14:17:51.376Z,12.88
2022-10-09T14:21:06.283Z,15.45
2022-10-09T14:24:14.593Z,15.80
2022-10-09T14:27:29.337Z,15.57
2022-10-09T14:30:38.296Z,13.25
2022-10-09T14:33:48.354Z,16.62
2022-10-09T14:36:57.295Z,16.52
2022-10-09T14:40:12.267Z,15.95
2022-10-09T14:43:20.276Z,15.63
2022-10-09T14:46:30.047Z,13.02
2022-10-09T14:49:38.284Z,16.02
2022-10-09T14:52:47.018Z,18.85
2022-10-09T14:55:55.302Z,16.75
2022-10-09T14:59:05.362Z,14.90
2022-10-09T15:02:22.296Z,13.90
2022-10-09T15:05:30.903Z,15.57
2022-10-09T15:08:41.314Z,13.52
2022-10-09T15:11:56.283Z,15.88
2022-10-09T15:14:58.030Z,11.13
2022-10-09T15:18:12.312Z,15.45
2022-10-09T15:21:37.278Z,12.68
2022-10-09T15:24:39.057Z,19.48
2022-10-09T15:27:55.060Z,15.27
2022-10-09T15:31:07.304Z,15.47
2022-10-09T15:34:18.170Z,12.45
2022-10-09T15:37:33.486Z,13.85
2022-10-09T15:40:50.462Z,15.45
2022-10-09T15:44:01.066Z,13.65
2022-10-09T15:47:09.305Z,17.37
2022-10-09T15:50:20.424Z,14.35
2022-10-09T15:53:30.331Z,14.13
2022-10-09T15:56:45.333Z,14.05
2022-10-09T15:59:47.172Z,11.25
2022-10-09T16:03:02.346Z,12.20
2022-10-09T16:06:14.283Z,25.40
2022-10-09T16:09:30.383Z,15.20
2022-10-09T16:12:32.143Z,15.60
2022-10-09T16:15:48.342Z,14.87
2022-10-09T16:18:51.244Z,15.37
2022-10-09T16:22:06.310Z,11.95
2022-10-09T16:25:21.302Z,14.15
2022-10-09T16:28:30.844Z,11.75
2022-10-09T16:31:42.300Z,14.02
2022-10-09T16:34:50.888Z,13.00
2022-10-09T16:37:59.339Z,9.30
2022-10-09T16:41:19.381Z,8.98
2022-10-09T16:44:28.348Z,14.45
2022-10-09T16:47:36.963Z,10.05
2022-10-09T16:50:47.362Z,7.60
2022-10-09T16:53:59.423Z,11.12
2022-10-09T16:57:07.347Z,10.05
2022-10-09T17:00:19.374Z,14.10
2022-10-09T17:03:28.347Z,11.15
2022-10-09T17:06:46.363Z,12.47
2022-10-09T17:09:48.194Z,8.88
2022-10-09T17:13:10.456Z,11.82
2022-10-09T17:16:28.347Z,6.93
2022-10-09T17:19:44.392Z,10.30
2022-10-09T17:22:52.661Z,8.83
2022-10-09T17:26:17.388Z,8.30
2022-10-09T17:29:25.374Z,9.15
2022-10-09T17:32:33.888Z,9.80
2022-10-09T17:35:48.342Z,9.00
2022-10-09T17:38:50.739Z,8.73
2022-10-09T17:42:05.359Z,10.40
2022-10-09T17:45:08.576Z,8.80
2022-10-09T17:48:24.350Z,11.93
2022-10-09T17:51:39.378Z,9.75
2022-10-09T17:54:48.031Z,9.43
2022-10-09T17:57:56.424Z,10.25
2022-10-09T18:01:07.428Z,9.07
2022-10-09T18:04:21.386Z,9.63
2022-10-09T18:07:30.117Z,9.60
2022-10-09T18:10:38.430Z,9.20
2022-10-09T18:13:47.520Z,7.22
2022-10-09T18:17:02.375Z,8.45
2022-10-09T18:20:11.393Z,8.38
2022-10-09T18:23:26.660Z,8.82
2022-10-09T18:26:35.430Z,6.03
2022-10-09T18:29:44.017Z,10.02
2022-10-09T18:32:52.842Z,7.28
2022-10-09T18:36:12.419Z,9.50
2022-10-09T18:39:14.950Z,8.48
2022-10-09T18:42:29.455Z,11.03
2022-10-09T18:45:31.541Z,9.02
2022-10-09T18:48:47.403Z,8.13
2022-10-09T18:52:03.407Z,10.15
2022-10-09T18:55:14.952Z,7.62
2022-10-09T18:58:23.462Z,9.70
2022-10-09T19:01:32.210Z,10.32
2022-10-09T19:04:47.479Z,8.05
2022-10-09T19:07:56.174Z,7.50
2022-10-09T19:11:04.455Z,9.35
2022-10-09T19:14:13.928Z,11.40
2022-10-09T19:17:22.444Z,11.75
2022-10-09T19:20:40.473Z,9.13
2022-10-09T19:23:50.843Z,7.45
2022-10-09T19:27:06.420Z,9.57
2022-10-09T19:30:09.011Z,10.63
2022-10-09T19:33:24.494Z,8.18
2022-10-09T19:36:26.259Z,15.07
2022-10-09T19:39:41.437Z,10.90
2022-10-09T19:42:50.113Z,12.55
2022-10-09T19:46:09.503Z,10.93
2022-10-09T19:49:18.212Z,12.50
2022-10-09T19:52:32.486Z,9.13
2022-10-09T19:55:41.226Z,8.93
2022-10-09T19:58:51.443Z,7.75
2022-10-09T20:02:00.036Z,11.07
2022-10-09T20:05:08.479Z,11.70
2022-10-09T20:08:17.444Z,14.43
2022-10-09T20:11:26.470Z,7.65
2022-10-09T20:14:41.427Z,11.20
2022-10-09T20:17:50.026Z,9.70
2022-10-09T20:21:04.431Z,16.23
2022-10-09T20:24:12.752Z,9.63
2022-10-09T20:27:27.473Z,7.22
2022-10-09T20:30:36.060Z,7.15
2022-10-09T20:33:54.459Z,11.47
2022-10-09T20:36:56.178Z,8.20
2022-10-09T20:40:11.476Z,13.60
2022-10-09T20:43:22.643Z,8.05
2022-10-09T20:46:34.693Z,6.20
2022-10-09T20:49:43.550Z,8.13
2022-10-09T20:52:52.527Z,7.18
2022-10-09T20:56:07.485Z,7.82
2022-10-09T20:59:17.266Z,7.37
2022-10-09T21:02:25.540Z,8.48
2022-10-09T21:05:46.482Z,7.13
2022-10-09T21:08:55.494Z,6.60
2022-10-09T21:12:10.494Z,6.07
2022-10-09T21:15:12.251Z,5.20
2022-10-09T21:18:26.496Z,6.40
2022-10-09T21:21:29.879Z,5.63
2022-10-09T21:24:51.488Z,7.43
2022-10-09T21:27:59.542Z,6.50
2022-10-09T21:31:09.375Z,5.32
2022-10-09T21:34:24.525Z,8.63
2022-10-09T21:37:35.605Z,7.27
2022-10-09T21:40:46.701Z,9.07
2022-10-09T21:44:01.491Z,5.65
2022-10-09T21:47:09.536Z,7.28
2022-10-09T21:50:18.177Z,9.02
2022-10-09T21:53:26.532Z,9.73
2022-10-09T21:56:35.322Z,7.43
2022-10-09T21:59:43.501Z,6.45
2022-10-09T22:02:52.410Z,13.43
2022-10-09T22:06:17.779Z,6.15
2022-10-09T22:09:27.515Z,6.73
2022-10-09T22:12:36.127Z,6.05
2022-10-09T22:15:51.597Z,6.03
2022-10-09T22:18:59.511Z,4.95
2022-10-09T22:22:08.250Z,8.60
2022-10-09T22:25:29.527Z,5.47
2022-10-09T22:28:31.818Z,8.15
2022-10-09T22:31:46.563Z,6.22
2022-10-09T22:34:57.529Z,5.47
2022-10-09T22:38:12.565Z,7.00
2022-10-09T22:41:18.196Z,7.20
2022-10-09T22:44:32.533Z,5.00
2022-10-09T22:47:41.087Z,6.00
2022-10-09T22:50:55.507Z,6.37
2022-10-09T22:54:04.909Z,10.63
2022-10-09T22:57:19.528Z,5.43
2022-10-09T23:00:28.196Z,5.47
2022-10-09T23:03:36.515Z,5.65
2022-10-09T23:06:45.935Z,4.70
2022-10-09T23:09:54.532Z,5.35
2022-10-09T23:13:03.077Z,6.40
2022-10-09T23:16:18.623Z,5.93
2022-10-09T23:19:27.151Z,8.27
2022-10-09T23:22:41.537Z,8.40
2022-10-09T23:25:56.615Z,6.72
2022-10-09T23:29:14.526Z,4.60
2022-10-09T23:32:23.197Z,7.07
2022-10-09T23:35:38.555Z,3.97
2022-10-09T23:38:41.022Z,5.25
2022-10-09T23:41:55.554Z,4.85
2022-10-09T23:44:57.352Z,6.97
2022-10-09T23:48:11.567Z,4.57
2022-10-09T23:51:14.975Z,5.25
2022-10-09T23:54:29.587Z,5.28
2022-10-09T23:57:44.647Z,4.75
